createdAt,value
2022-11-15T00:00:29.254Z,8.50
2022-11-15T00:03:36.919Z,10.10
2022-11-15T00:06:43.282Z,9.30
2022-11-15T00:09:50.084Z,6.90
2022-11-15T00:12:56.381Z,7.00
2022-11-15T00:16:04.013Z,8.40
2022-11-15T00:19:12.018Z,7.67
2022-11-15T00:22:18.398Z,8.00
2022-11-15T00:25:24.738Z,7.33
2022-11-15T00:28:31.756Z,8.17
2022-11-15T00:31:49.720Z,7.27
2022-11-15T00:34:57.114Z,7.27
2022-11-15T00:38:03.667Z,7.07
2022-11-15T00:41:10.412Z,6.47
2022-11-15T00:44:16.696Z,6.83
2022-11-15T00:47:23.188Z,8.30
2022-11-15T00:50:31.017Z,7.53
2022-11-15T00:53:37.381Z,7.10
2022-11-15T00:56:43.791Z,7.03
2022-11-15T00:59:50.319Z,8.40
2022-11-15T01:02:56.798Z,9.10
2022-11-15T01:06:05.612Z,10.67
2022-11-15T01:09:12.047Z,10.20
2022-11-15T01:12:18.362Z,6.63
2022-11-15T01:15:24.802Z,8.13
2022-11-15T01:18:30.973Z,10.37
2022-11-15T01:21:38.669Z,9.43
2022-11-15T01:24:45.027Z,8.97
2022-11-15T01:27:51.258Z,10.53
2022-11-15T01:31:00.471Z,7.33
2022-11-15T01:34:06.525Z,8.63
2022-11-15T01:37:14.397Z,9.77
2022-11-15T01:40:20.677Z,8.43
2022-11-15T01:43:29.643Z,11.57
2022-11-15T01:46:37.986Z,11.63
2022-11-15T01:49:52.169Z,8.87
2022-11-15T01:52:59.661Z,11.10
2022-11-15T01:56:08.905Z,9.83
2022-11-15T01:59:15.671Z,9.03
2022-11-15T02:02:22.432Z,8.83
2022-11-15T02:05:28.901Z,9.47
2022-11-15T02:08:36.552Z,7.90
2022-11-15T02:11:43.968Z,10.57
2022-11-15T02:14:53.918Z,8.53
2022-11-15T02:18:13.782Z,8.57
2022-11-15T02:21:29.153Z,6.77
2022-11-15T02:24:57.437Z,6.90
2022-11-15T02:28:30.549Z,9.10
2022-11-15T02:31:47.714Z,7.50
2022-11-15T02:35:04.035Z,7.67
2022-11-15T02:38:19.408Z,8.93
2022-11-15T02:41:32.130Z,7.07
2022-11-15T02:44:44.774Z,7.37
2022-11-15T02:47:56.520Z,5.73
2022-11-15T02:51:03.885Z,8.10
2022-11-15T02:54:14.587Z,8.37
2022-11-15T02:57:24.724Z,7.97
2022-11-15T03:00:38.888Z,7.83
2022-11-15T03:03:59.664Z,8.93
2022-11-15T03:07:14.020Z,8.00
2022-11-15T03:10:27.466Z,8.13
2022-11-15T03:13:40.103Z,7.63
2022-11-15T03:16:51.523Z,10.70
2022-11-15T03:20:02.671Z,14.10
2022-11-15T03:23:12.384Z,11.40
2022-11-15T03:26:23.696Z,13.03
2022-11-15T03:29:35.629Z,11.07
2022-11-15T03:32:46.870Z,11.57
2022-11-15T03:35:56.387Z,10.90
2022-11-15T03:39:07.330Z,8.73
2022-11-15T03:42:22.775Z,8.60
2022-11-15T03:45:34.430Z,10.97
2022-11-15T03:48:47.166Z,10.60
2022-11-15T03:51:55.406Z,10.13
2022-11-15T03:55:05.557Z,8.97
2022-11-15T03:58:12.053Z,9.37
2022-11-15T04:01:18.531Z,13.07
2022-11-15T04:04:25.231Z,9.73
2022-11-15T04:07:32.788Z,16.10
2022-11-15T04:10:39.673Z,9.73
2022-11-15T04:13:45.868Z,8.07
2022-11-15T04:16:51.832Z,6.57
2022-11-15T04:20:15.977Z,9.80
2022-11-15T04:23:42.872Z,10.03
2022-11-15T04:26:49.049Z,10.33
2022-11-15T04:29:55.791Z,9.50
2022-11-15T04:33:02.470Z,10.60
2022-11-15T04:36:27.173Z,12.53
2022-11-15T04:39:34.685Z,15.83
2022-11-15T04:42:43.096Z,23.80
2022-11-15T04:45:49.277Z,17.03
2022-11-15T04:48:58.862Z,26.93
2022-11-15T04:52:06.062Z,23.27
2022-11-15T04:55:13.805Z,14.80
2022-11-15T04:58:20.356Z,13.53
2022-11-15T05:01:26.858Z,12.30
2022-11-15T05:04:32.417Z,11.90
2022-11-15T05:07:38.974Z,14.80
2022-11-15T05:10:47.084Z,11.83
2022-11-15T05:13:53.465Z,12.00
2022-11-15T05:16:59.906Z,12.83
2022-11-15T05:20:07.084Z,12.83
2022-11-15T05:23:13.341Z,9.00
2022-11-15T05:26:21.373Z,10.80
2022-11-15T05:29:27.640Z,9.47
2022-11-15T05:32:33.949Z,12.17
2022-11-15T05:35:44.090Z,12.27
2022-11-15T05:38:51.198Z,13.77
2022-11-15T05:42:03.958Z,16.00
2022-11-15T05:45:11.671Z,16.27
2022-11-15T05:48:18.617Z,20.80
2022-11-15T05:51:25.869Z,24.97
2022-11-15T05:54:34.029Z,22.13
2022-11-15T05:57:41.686Z,22.73
2022-11-15T06:00:48.953Z,17.43
2022-11-15T06:03:55.310Z,14.87
2022-11-15T06:07:01.960Z,18.87
2022-11-15T06:10:09.803Z,14.53
2022-11-15T06:13:17.646Z,12.77
2022-11-15T06:16:24.313Z,12.60
2022-11-15T06:19:33.869Z,14.97
2022-11-15T06:22:40.406Z,16.77
2022-11-15T06:25:46.766Z,14.10
2022-11-15T06:28:54.292Z,17.27
2022-11-15T06:32:00.406Z,15.53
2022-11-15T06:35:07.687Z,19.40
2022-11-15T06:38:14.107Z,20.80
2022-11-15T06:41:22.075Z,23.53
2022-11-15T06:44:29.563Z,20.73
2022-11-15T06:47:35.802Z,24.67
2022-11-15T06:50:42.652Z,22.07
2022-11-15T06:53:48.614Z,19.43
2022-11-15T06:56:54.797Z,16.77
2022-11-15T07:00:02.676Z,13.30
2022-11-15T07:03:09.256Z,16.20
2022-11-15T07:06:15.669Z,15.67
2022-11-15T07:09:21.885Z,17.73
2022-11-15T07:12:28.066Z,18.63
2022-11-15T07:15:35.873Z,18.90
2022-11-15T07:18:42.996Z,19.43
2022-11-15T07:21:49.482Z,17.40
2022-11-15T07:24:55.653Z,18.93
2022-11-15T07:28:02.933Z,16.73
2022-11-15T07:31:11.225Z,17.97
2022-11-15T07:34:17.972Z,18.90
2022-11-15T07:37:24.500Z,22.13
2022-11-15T07:40:32.761Z,20.60
2022-11-15T07:43:38.922Z,19.47
2022-11-15T07:46:46.667Z,16.67
2022-11-15T07:49:53.221Z,17.77
2022-11-15T07:53:01.539Z,19.47
2022-11-15T07:56:09.048Z,18.70
2022-11-15T07:59:15.385Z,16.43
2022-11-15T08:02:27.629Z,20.07
2022-11-15T08:05:37.384Z,12.70
2022-11-15T08:08:44.005Z,14.17
2022-11-15T08:11:50.277Z,17.03
2022-11-15T08:14:56.621Z,20.20
2022-11-15T08:18:06.731Z,14.33
2022-11-15T08:21:18.442Z,14.80
2022-11-15T08:24:25.038Z,11.20
2022-11-15T08:27:31.303Z,10.87
2022-11-15T08:30:42.685Z,10.70
2022-11-15T08:33:50.225Z,10.17
2022-11-15T08:36:56.516Z,9.50
2022-11-15T08:40:03.113Z,10.53
2022-11-15T08:43:09.945Z,11.57
2022-11-15T08:46:16.546Z,10.07
2022-11-15T08:49:24.501Z,9.33
2022-11-15T08:52:30.484Z,6.20
2022-11-15T08:55:39.637Z,7.03
2022-11-15T08:58:45.800Z,10.10
2022-11-15T09:01:52.014Z,8.47
2022-11-15T09:04:59.584Z,8.70
2022-11-15T09:08:19.183Z,8.33
2022-11-15T09:11:33.420Z,7.97
2022-11-15T09:14:40.117Z,6.30
2022-11-15T09:17:46.501Z,9.60
2022-11-15T09:20:57.727Z,7.63
2022-11-15T09:24:05.389Z,6.33
2022-11-15T09:27:11.594Z,7.30
2022-11-15T09:30:18.706Z,7.13
2022-11-15T09:33:24.818Z,5.43
2022-11-15T09:36:32.395Z,6.67
2022-11-15T09:39:38.769Z,8.40
2022-11-15T09:43:00.861Z,6.93
2022-11-15T09:46:16.384Z,6.97
2022-11-15T09:49:24.353Z,7.70
2022-11-15T09:52:31.778Z,8.53
2022-11-15T09:55:49.880Z,9.10
2022-11-15T09:59:08.338Z,8.77
2022-11-15T10:02:26.198Z,7.07
2022-11-15T10:05:34.599Z,7.37
2022-11-15T10:08:52.920Z,6.07
2022-11-15T10:11:59.240Z,5.10
2022-11-15T10:15:12.428Z,4.40
2022-11-15T10:18:21.819Z,5.50
2022-11-15T10:21:40.897Z,4.93
2022-11-15T10:24:49.159Z,5.60
2022-11-15T10:27:58.866Z,4.93
2022-11-15T10:31:06.415Z,5.00
2022-11-15T10:34:16.078Z,4.40
2022-11-15T10:37:31.510Z,4.97
2022-11-15T10:40:40.083Z,4.93
2022-11-15T10:43:47.275Z,5.57
2022-11-15T10:47:28.325Z,4.60
2022-11-15T10:50:34.923Z,4.43
2022-11-15T10:53:47.667Z,4.10
2022-11-15T10:56:58.304Z,4.67
2022-11-15T11:00:08.535Z,5.00
2022-11-15T11:03:30.902Z,4.90
2022-11-15T11:06:49.579Z,5.23
2022-11-15T11:10:01.723Z,4.23
2022-11-15T11:13:25.699Z,4.73
2022-11-15T11:16:47.258Z,4.77
2022-11-15T11:20:05.784Z,3.80
2022-11-15T11:23:37.854Z,3.87
2022-11-15T11:26:51.704Z,18.57
2022-11-15T11:30:11.513Z,30.37
2022-11-15T11:33:21.244Z,8.80
2022-11-15T11:36:33.670Z,5.67
2022-11-15T11:39:51.376Z,4.83
2022-11-15T11:43:06.822Z,4.47
2022-11-15T11:46:31.741Z,4.40
2022-11-15T11:49:45.893Z,4.50
2022-11-15T11:53:03.655Z,3.80
2022-11-15T11:56:21.836Z,4.83
2022-11-15T11:59:38.090Z,5.43
2022-11-15T12:02:50.164Z,4.30
2022-11-15T12:05:59.890Z,5.77
2022-11-15T12:09:16.789Z,6.57
2022-11-15T12:12:30.016Z,6.33
2022-11-15T12:15:56.937Z,4.80
2022-11-15T12:19:06.830Z,6.10
2022-11-15T12:22:21.936Z,6.20
2022-11-15T12:25:33.540Z,8.27
2022-11-15T12:28:58.667Z,6.23
2022-11-15T12:32:25.376Z,6.53
2022-11-15T12:35:37.177Z,5.80
2022-11-15T12:38:57.156Z,6.10
2022-11-15T12:42:36.492Z,7.13
2022-11-15T12:45:44.294Z,6.13
2022-11-15T12:48:58.748Z,5.83
2022-11-15T12:52:11.768Z,5.37
2022-11-15T12:55:34.065Z,5.57
2022-11-15T12:58:46.943Z,4.93
2022-11-15T13:02:03.562Z,5.50
2022-11-15T13:05:43.201Z,4.40
2022-11-15T13:08:52.565Z,4.57
2022-11-15T13:11:59.964Z,4.47
2022-11-15T13:15:43.091Z,5.30
2022-11-15T13:18:56.219Z,5.30
2022-11-15T13:22:23.267Z,4.27
2022-11-15T13:26:12.248Z,4.00
2022-11-15T13:29:22.041Z,5.40
2022-11-15T13:32:28.165Z,5.30
2022-11-15T13:35:38.550Z,5.90
2022-11-15T13:38:45.737Z,5.50
2022-11-15T13:41:53.686Z,3.30
2022-11-15T13:45:05.746Z,8.43
2022-11-15T13:48:12.385Z,15.90
2022-11-15T13:51:25.972Z,10.77
2022-11-15T13:54:37.791Z,5.93
2022-11-15T13:57:46.698Z,7.90
2022-11-15T14:01:03.074Z,4.63
2022-11-15T14:04:13.673Z,5.20
2022-11-15T14:07:22.455Z,6.10
2022-11-15T14:10:31.833Z,7.27
2022-11-15T14:13:38.476Z,7.93
2022-11-15T14:16:48.140Z,11.03
2022-11-15T14:19:54.296Z,12.17
2022-11-15T14:23:02.395Z,9.57
2022-11-15T14:26:13.716Z,12.03
2022-11-15T14:29:26.974Z,17.83
2022-11-15T14:32:45.696Z,11.40
2022-11-15T14:35:52.788Z,15.63
2022-11-15T14:38:59.362Z,11.57
2022-11-15T14:42:10.550Z,9.70
2022-11-15T14:45:19.289Z,10.93
2022-11-15T14:48:27.177Z,7.83
2022-11-15T14:51:34.379Z,10.00
2022-11-15T14:54:40.581Z,10.63
2022-11-15T14:58:01.163Z,8.33
2022-11-15T15:01:14.932Z,10.13
2022-11-15T15:04:22.632Z,10.77
2022-11-15T15:07:28.737Z,10.53
2022-11-15T15:10:51.356Z,13.03
2022-11-15T15:13:59.428Z,12.70
2022-11-15T15:17:05.918Z,24.90
2022-11-15T15:20:27.629Z,21.53
2022-11-15T15:23:33.990Z,12.17
2022-11-15T15:26:40.402Z,11.13
2022-11-15T15:29:46.745Z,10.23
2022-11-15T15:32:53.332Z,16.33
2022-11-15T15:36:12.688Z,15.20
2022-11-15T15:39:18.928Z,12.17
2022-11-15T15:42:25.663Z,10.33
2022-11-15T15:45:40.557Z,10.53
2022-11-15T15:48:47.700Z,8.33
2022-11-15T15:51:55.246Z,9.60
2022-11-15T15:55:01.855Z,7.43
2022-11-15T15:58:09.341Z,5.97
2022-11-15T16:01:15.680Z,12.90
2022-11-15T16:04:22.079Z,20.40
2022-11-15T16:07:30.493Z,21.73
2022-11-15T16:10:37.888Z,26.17
2022-11-15T16:13:44.243Z,14.70
2022-11-15T16:16:50.450Z,12.03
2022-11-15T16:19:56.721Z,16.17
2022-11-15T16:23:08.931Z,14.77
2022-11-15T16:26:22.426Z,15.33
2022-11-15T16:29:29.305Z,17.30
2022-11-15T16:32:35.793Z,16.00
2022-11-15T16:35:42.287Z,20.80
2022-11-15T16:38:50.437Z,28.00
2022-11-15T16:41:56.812Z,32.03
2022-11-15T16:45:03.069Z,31.53
2022-11-15T16:48:35.202Z,35.13
2022-11-15T16:51:42.751Z,34.00
2022-11-15T16:54:50.428Z,33.03
2022-11-15T16:57:58.131Z,44.87
2022-11-15T17:01:05.810Z,44.87
2022-11-15T17:04:13.631Z,39.30
2022-11-15T17:07:19.711Z,42.93
2022-11-15T17:10:28.386Z,41.77
2022-11-15T17:13:34.761Z,70.30
2022-11-15T17:16:42.657Z,77.20
2022-11-15T17:19:48.562Z,69.67
2022-11-15T17:22:54.458Z,69.87
2022-11-15T17:26:17.867Z,69.80
2022-11-15T17:29:30.604Z,58.87
2022-11-15T17:32:38.243Z,62.50
2022-11-15T17:35:44.381Z,70.77
2022-11-15T17:38:58.011Z,69.63
2022-11-15T17:42:07.076Z,53.43
2022-11-15T17:45:14.484Z,51.80
2022-11-15T17:48:20.706Z,60.17
2022-11-15T17:51:27.829Z,62.10
2022-11-15T17:54:34.436Z,74.93
2022-11-15T17:57:42.274Z,89.67
2022-11-15T18:00:49.827Z,57.80
2022-11-15T18:03:57.165Z,34.03
2022-11-15T18:07:03.872Z,43.60
2022-11-15T18:10:10.694Z,47.87
2022-11-15T18:13:18.717Z,45.60
2022-11-15T18:16:31.144Z,43.70
2022-11-15T18:19:37.853Z,58.67
2022-11-15T18:22:43.950Z,54.40
2022-11-15T18:25:53.053Z,40.97
2022-11-15T18:29:05.737Z,32.53
2022-11-15T18:32:12.679Z,41.33
2022-11-15T18:35:19.053Z,43.67
2022-11-15T18:38:30.596Z,44.03
2022-11-15T18:41:37.177Z,45.43
2022-11-15T18:44:44.558Z,37.33
2022-11-15T18:48:04.517Z,32.97
2022-11-15T18:51:11.810Z,23.77
2022-11-15T18:54:19.088Z,23.00
2022-11-15T18:57:26.637Z,25.57
2022-11-15T19:00:34.203Z,29.73
2022-11-15T19:03:42.777Z,24.90
2022-11-15T19:06:51.508Z,25.67
2022-11-15T19:09:57.928Z,27.10
2022-11-15T19:13:04.181Z,26.70
2022-11-15T19:16:14.102Z,34.30
2022-11-15T19:19:21.807Z,34.67
2022-11-15T19:22:27.776Z,35.50
2022-11-15T19:25:33.801Z,30.53
2022-11-15T19:28:40.406Z,29.53
2022-11-15T19:31:48.895Z,35.17
2022-11-15T19:34:55.083Z,45.63
2022-11-15T19:38:01.449Z,40.57
2022-11-15T19:41:09.797Z,30.37
2022-11-15T19:44:16.619Z,33.80
2022-11-15T19:47:24.444Z,39.47
2022-11-15T19:50:30.757Z,31.73
2022-11-15T19:53:38.185Z,22.53
2022-11-15T19:56:44.774Z,19.17
2022-11-15T19:59:51.033Z,21.73
2022-11-15T20:02:58.835Z,18.73
2022-11-15T20:06:06.908Z,20.87
2022-11-15T20:09:15.040Z,30.27
2022-11-15T20:12:21.600Z,29.83
2022-11-15T20:15:28.289Z,29.33
2022-11-15T20:18:36.504Z,31.70
2022-11-15T20:21:43.751Z,36.57
2022-11-15T20:24:50.036Z,33.70
2022-11-15T20:27:56.231Z,35.90
2022-11-15T20:31:03.012Z,32.17
2022-11-15T20:34:11.074Z,38.40
2022-11-15T20:37:17.505Z,38.60
2022-11-15T20:40:24.134Z,27.73
2022-11-15T20:43:30.362Z,26.67
2022-11-15T20:46:36.632Z,26.57
2022-11-15T20:49:44.082Z,27.17
2022-11-15T20:52:50.396Z,30.00
2022-11-15T20:55:56.255Z,17.30
2022-11-15T20:59:02.457Z,14.57
2022-11-15T21:02:10.606Z,14.30
2022-11-15T21:05:18.474Z,15.83
2022-11-15T21:08:24.829Z,14.50
2022-11-15T21:11:48.858Z,27.53
2022-11-15T21:14:54.936Z,16.80
2022-11-15T21:18:01.242Z,15.20
2022-11-15T21:21:09.065Z,21.73
2022-11-15T21:24:15.139Z,18.67
2022-11-15T21:27:21.810Z,22.17
2022-11-15T21:30:28.237Z,22.70
2022-11-15T21:33:36.154Z,29.53
2022-11-15T21:36:44.091Z,43.20
2022-11-15T21:39:50.793Z,75.67
2022-11-15T21:42:57.430Z,67.43
2022-11-15T21:46:05.535Z,54.23
2022-11-15T21:49:11.803Z,40.33
2022-11-15T21:52:19.643Z,30.17
2022-11-15T21:55:25.875Z,22.27
2022-11-15T21:58:32.760Z,21.60
2022-11-15T22:01:56.928Z,24.23
2022-11-15T22:05:02.970Z,24.00
2022-11-15T22:08:10.736Z,22.30
2022-11-15T22:11:17.205Z,22.00
2022-11-15T22:14:23.401Z,17.40
2022-11-15T22:17:49.601Z,17.63
2022-11-15T22:20:57.052Z,21.33
2022-11-15T22:24:05.259Z,18.97
2022-11-15T22:27:12.044Z,16.70
2022-11-15T22:30:19.544Z,14.70
2022-11-15T22:33:28.206Z,18.37
2022-11-15T22:36:52.368Z,20.13
2022-11-15T22:40:02.874Z,24.23
2022-11-15T22:43:09.533Z,24.87
2022-11-15T22:46:16.273Z,26.37
2022-11-15T22:49:22.715Z,25.27
2022-11-15T22:52:29.365Z,25.77
2022-11-15T22:55:38.903Z,16.13
2022-11-15T22:58:45.467Z,16.93
2022-11-15T23:01:52.053Z,14.97
2022-11-15T23:04:58.534Z,15.03
2022-11-15T23:08:05.169Z,17.27
2022-11-15T23:11:30.814Z,16.60
2022-11-15T23:14:37.109Z,18.70
2022-11-15T23:17:43.741Z,15.63
2022-11-15T23:20:50.279Z,17.70
2022-11-15T23:23:55.569Z,18.20
2022-11-15T23:27:07.260Z,17.60
2022-11-15T23:30:43.466Z,21.73
2022-11-15T23:33:58.665Z,21.53
2022-11-15T23:37:06.844Z,19.23
2022-11-15T23:40:14.224Z,19.00
2022-11-15T23:43:22.811Z,16.00
2022-11-15T23:46:29.265Z,16.93
2022-11-15T23:49:35.558Z,18.17
2022-11-15T23:52:41.727Z,14.57
2022-11-15T23:55:55.977Z,14.90
2022-11-15T23:59:03.883Z,14.30
